Time;durP1;ratioP1;P1;durP2;ratioP2;P2;SDS_P1;SDS_P2;PMS_P1;PMS_P2;Temp;Humidity;BMP_temperature;BMP_pressure;BME280_temperature;BME280_humidity;BME280_pressure;Samples;Min_cycle;Max_cycle;Signal;HPM_P1;HPM_P2
2021/12/03 00:01:08;;;;;;;0.82;0.50;;;;;;;6.39;100.00;98818.53;5091419;28;20024;-67
2021/12/03 00:03:34;;;;;;;0.60;0.60;;;;;;;6.34;100.00;98824.28;5091143;28;20433;-67
2021/12/03 00:06:01;;;;;;;0.85;0.60;;;;;;;6.35;100.00;98849.06;5091548;28;20032;-67
2021/12/03 00:08:26;;;;;;;1.10;0.75;;;;;;;6.30;100.00;98857.50;5091459;28;20445;-67
2021/12/03 00:10:58;;;;;;;2.60;1.08;;;;;;;6.28;100.00;98847.97;5091420;28;20038;-67
2021/12/03 00:13:26;;;;;;;1.30;0.90;;;;;;;6.26;100.00;98837.44;5091593;28;20114;-67
2021/12/03 00:15:54;;;;;;;1.00;0.77;;;;;;;6.33;100.00;98843.06;5073268;28;20053;-67
2021/12/03 00:18:20;;;;;;;0.60;0.57;;;;;;;6.27;100.00;98843.63;5091232;28;20027;-67
2021/12/03 00:20:46;;;;;;;1.65;0.65;;;;;;;6.31;100.00;98856.50;5091246;28;20020;-67
2021/12/03 00:23:12;;;;;;;1.25;0.95;;;;;;;6.22;100.00;98851.19;5091354;28;20075;-67
2021/12/03 00:25:38;;;;;;;1.38;0.90;;;;;;;6.25;100.00;98864.22;5091297;28;20438;-67
2021/12/03 00:28:05;;;;;;;1.88;1.27;;;;;;;6.24;100.00;98867.88;5091381;28;20044;-67
2021/12/03 00:30:30;;;;;;;1.65;1.20;;;;;;;6.24;100.00;98867.88;5073110;28;20031;-67
2021/12/03 00:32:56;;;;;;;1.27;1.17;;;;;;;6.25;100.00;98878.38;5091079;28;20035;-67
2021/12/03 00:35:22;;;;;;;1.15;0.88;;;;;;;6.26;100.00;98882.69;5091266;28;20035;-67
2021/12/03 00:37:49;;;;;;;1.52;1.10;;;;;;;6.25;100.00;98880.19;5091062;28;20054;-67
2021/12/03 00:40:22;;;;;;;1.55;0.98;;;;;;;6.23;100.00;98882.16;5072891;28;20035;-67
2021/12/03 00:42:48;;;;;;;1.00;0.70;;;;;;;6.25;100.00;98878.38;5091021;28;20039;-67
2021/12/03 00:45:14;;;;;;;1.02;0.80;;;;;;;6.25;100.00;98872.19;5090868;28;20032;-67
2021/12/03 00:47:41;;;;;;;0.98;0.63;;;;;;;6.20;100.00;98871.81;5090868;28;20440;-67
2021/12/03 00:50:09;;;;;;;1.55;1.08;;;;;;;6.17;100.00;98870.28;5090873;28;20020;-67
2021/12/03 00:52:35;;;;;;;1.73;0.90;;;;;;;6.14;100.00;98861.72;5072783;28;20064;-67
2021/12/03 00:55:01;;;;;;;2.13;0.98;;;;;;;6.20;100.00;98883.31;5090737;28;20024;-68
2021/12/03 00:57:27;;;;;;;1.80;0.90;;;;;;;6.15;100.00;98876.69;5090809;28;20023;-68
2021/12/03 00:59:52;;;;;;;1.38;1.00;;;;;;;6.14;100.00;98883.88;5090707;28;20031;-68
2021/12/03 01:02:17;;;;;;;2.65;1.40;;;;;;;6.10;100.00;98885.09;5090742;28;20024;-68
2021/12/03 01:04:44;;;;;;;3.65;1.95;;;;;;;6.18;100.00;98903.88;5090596;28;20405;-68
2021/12/03 01:07:09;;;;;;;3.58;1.30;;;;;;;6.18;100.00;98890.56;5089724;28;20028;-68
2021/12/03 01:09:35;;;;;;;1.65;1.08;;;;;;;6.21;100.00;98902.75;5090650;28;20032;-68
2021/12/03 01:12:01;;;;;;;1.95;0.90;;;;;;;6.20;100.00;98906.41;5072433;28;20023;-67
2021/12/03 01:14:26;;;;;;;1.42;1.08;;;;;;;6.19;100.00;98908.22;5090129;28;20027;-67
2021/12/03 01:16:52;;;;;;;1.00;0.90;;;;;;;6.18;100.00;98917.19;5090703;28;20032;-68
2021/12/03 01:19:18;;;;;;;1.05;0.95;;;;;;;6.18;100.00;98916.34;5090768;28;20038;-68
2021/12/03 01:21:43;;;;;;;3.22;1.27;;;;;;;6.18;100.00;98921.66;5072240;28;20039;-67
2021/12/03 01:24:09;;;;;;;2.22;1.60;;;;;;;6.13;100.00;98914.09;5090456;28;20130;-67
2021/12/03 01:26:35;;;;;;;2.58;1.77;;;;;;;6.20;100.00;98931.22;5090668;28;20121;-67
2021/12/03 01:29:03;;;;;;;3.85;2.42;;;;;;;6.17;100.00;98920.00;5072027;28;20063;-67
2021/12/03 01:31:29;;;;;;;4.32;3.03;;;;;;;6.21;100.00;98926.72;5072302;28;20039;-67
2021/12/03 01:33:54;;;;;;;3.88;2.45;;;;;;;6.23;100.00;98930.91;5090220;28;20024;-67
2021/12/03 01:36:20;;;;;;;4.45;2.80;;;;;;;6.23;100.00;98941.53;5090304;28;20084;-67
2021/12/03 01:38:45;;;;;;;4.00;3.20;;;;;;;6.17;100.00;98936.81;5072269;28;20399;-67
2021/12/03 01:41:11;;;;;;;6.03;3.00;;;;;;;6.29;100.00;98948.16;5072307;28;20551;-67
2021/12/03 01:43:38;;;;;;;4.85;3.33;;;;;;;6.33;100.00;98952.22;5090069;28;20059;-67
2021/12/03 01:46:07;;;;;;;7.60;3.67;;;;;;;6.35;100.00;98956.41;5090236;28;20046;-67
2021/12/03 01:48:34;;;;;;;5.25;3.80;;;;;;;6.26;100.00;98938.59;5090266;28;20024;-67
2021/12/03 01:51:01;;;;;;;5.40;3.78;;;;;;;6.35;100.00;98947.56;5090192;28;20028;-67
2021/12/03 01:53:33;;;;;;;5.85;3.78;;;;;;;6.25;100.00;98933.41;5090106;28;20035;-67
2021/12/03 01:56:02;;;;;;;5.35;3.90;;;;;;;6.33;100.00;98958.38;5071938;28;20364;-67
2021/12/03 01:58:27;;;;;;;5.43;4.05;;;;;;;6.33;100.00;98952.22;5071770;28;20035;-67
2021/12/03 02:00:58;;;;;;;5.93;4.50;;;;;;;6.34;100.00;98956.53;5090167;28;20465;-67
2021/12/03 02:03:28;;;;;;;5.63;4.53;;;;;;;6.31;100.00;98957.66;5090200;28;20032;-67
2021/12/03 02:05:55;;;;;;;7.47;5.25;;;;;;;6.39;100.00;98963.13;5090193;28;20036;-67
2021/12/03 02:08:20;;;;;;;6.47;4.88;;;;;;;6.34;100.00;98956.53;5071861;28;20036;-68
2021/12/03 02:10:46;;;;;;;8.15;5.50;;;;;;;6.37;100.00;98965.09;5089751;28;20399;-68
2021/12/03 02:13:13;;;;;;;7.20;4.75;;;;;;;6.36;100.00;98974.03;5090320;28;20039;-67
2021/12/03 02:15:41;;;;;;;7.18;5.00;;;;;;;6.34;100.00;98970.72;5090038;28;20418;-67
2021/12/03 02:18:08;;;;;;;7.43;5.25;;;;;;;6.35;100.00;98967.06;5089903;28;20047;-67
2021/12/03 02:20:34;;;;;;;6.45;5.15;;;;;;;6.41;100.00;98978.94;5089905;28;20040;-66
2021/12/03 02:23:00;;;;;;;4.90;4.28;;;;;;;6.40;100.00;98985.28;5089894;28;20024;-67
2021/12/03 02:25:26;;;;;;;6.15;4.40;;;;;;;6.38;100.00;98988.06;5091261;28;20442;-67
2021/12/03 02:27:55;;;;;;;5.10;4.05;;;;;;;6.36;100.00;98984.69;5093392;28;20059;-67
2021/12/03 02:30:22;;;;;;;5.97;4.43;;;;;;;6.41;100.00;98992.25;5093667;28;20055;-68
2021/12/03 02:32:49;;;;;;;8.00;4.45;;;;;;;6.37;100.00;99002.38;5075095;28;20067;-67
2021/12/03 02:35:16;;;;;;;5.95;4.38;;;;;;;6.42;100.00;99005.44;5093648;28;20039;-68
2021/12/03 02:37:42;;;;;;;6.35;4.78;;;;;;;6.39;100.00;99008.38;5093530;28;20063;-67
2021/12/03 02:40:09;;;;;;;6.30;5.22;;;;;;;6.42;100.00;99012.59;5092984;28;20062;-68
2021/12/03 02:42:35;;;;;;;5.95;4.32;;;;;;;6.41;100.00;99014.41;5093459;28;20389;-67
2021/12/03 02:45:01;;;;;;;6.07;4.68;;;;;;;6.39;100.00;99003.06;5074844;28;20024;-67
2021/12/03 02:47:26;;;;;;;6.55;4.65;;;;;;;6.41;100.00;99013.56;5093206;28;20035;-67
2021/12/03 02:49:52;;;;;;;6.05;4.78;;;;;;;6.38;100.00;99009.38;5093191;28;20036;-67
2021/12/03 02:52:17;;;;;;;7.20;4.65;;;;;;;6.40;100.00;99015.41;5092943;28;20030;-68
2021/12/03 02:54:43;;;;;;;7.18;5.35;;;;;;;6.36;100.00;99021.97;5092859;28;20054;-67
2021/12/03 02:57:08;;;;;;;8.60;4.88;;;;;;;6.35;100.00;99025.63;5092836;28;20016;-67
2021/12/03 02:59:34;;;;;;;6.18;4.18;;;;;;;6.36;100.00;99032.63;5092966;28;20490;-67
2021/12/03 03:02:01;;;;;;;6.40;4.53;;;;;;;6.34;100.00;99034.59;5092853;28;20167;-67
2021/12/03 03:04:26;;;;;;;6.05;4.35;;;;;;;6.30;100.00;99025.22;5092778;28;20052;-67
2021/12/03 03:06:52;;;;;;;6.28;4.72;;;;;;;6.32;100.00;99030.41;5090364;28;20047;-67
2021/12/03 03:09:18;;;;;;;8.60;4.68;;;;;;;6.30;100.00;99037.69;5092400;28;20040;-67
2021/12/03 03:11:43;;;;;;;8.00;5.10;;;;;;;6.31;100.00;99045.53;5092727;28;20020;-67
2021/12/03 03:14:09;;;;;;;8.00;5.38;;;;;;;6.30;100.00;99038.53;5098981;28;20027;-67
2021/12/03 03:16:35;;;;;;;7.28;4.95;;;;;;;6.31;100.00;99042.00;5096259;28;20020;-67
2021/12/03 03:19:09;;;;;;;7.22;5.70;;;;;;;6.27;100.00;99040.63;5076362;28;20031;-67
2021/12/03 03:21:34;;;;;;;8.98;6.35;;;;;;;6.27;100.00;99048.59;5095566;28;20038;-67
2021/12/03 03:24:00;;;;;;;10.55;6.95;;;;;;;6.30;100.00;99059.84;5095364;28;20035;-67
2021/12/03 03:26:26;;;;;;;8.68;6.07;;;;;;;6.30;100.00;99057.16;5096855;28;20034;-67
2021/12/03 03:28:55;;;;;;;8.82;6.50;;;;;;;6.29;100.00;99075.94;5095510;28;20062;-67
2021/12/03 03:31:21;;;;;;;10.48;6.78;;;;;;;6.25;100.00;99074.50;5094849;28;20055;-67
2021/12/03 03:33:46;;;;;;;10.25;6.40;;;;;;;6.23;100.00;99087.94;5095956;28;20440;-67
2021/12/03 03:36:12;;;;;;;9.45;6.70;;;;;;;6.38;100.00;99091.91;5078151;28;20056;-67
2021/12/03 03:38:37;;;;;;;10.50;7.18;;;;;;;6.32;100.00;99094.31;5092721;28;20111;-67
2021/12/03 03:41:03;;;;;;;10.10;7.03;;;;;;;6.26;100.00;99087.69;5095809;28;20028;-67
2021/12/03 03:43:28;;;;;;;9.90;6.38;;;;;;;6.32;100.00;99094.31;5095321;28;20028;-67
2021/12/03 03:45:54;;;;;;;9.50;7.03;;;;;;;6.27;100.00;99097.38;5096592;28;20031;-67
2021/12/03 03:48:20;;;;;;;8.65;6.32;;;;;;;6.25;100.00;99107.31;5096096;28;20446;-67
2021/12/03 03:50:46;;;;;;;9.07;6.28;;;;;;;6.27;100.00;99108.03;5095821;28;20112;-67
2021/12/03 03:53:12;;;;;;;8.02;6.85;;;;;;;6.27;100.00;99113.34;5096872;28;20088;-68
2021/12/03 03:55:37;;;;;;;8.73;6.40;;;;;;;6.26;100.00;99119.63;5098532;28;20031;-67
2021/12/03 03:58:04;;;;;;;9.00;6.10;;;;;;;6.22;100.00;99112.91;5093262;28;20024;-67
2021/12/03 04:00:36;;;;;;;9.15;6.68;;;;;;;6.20;100.00;99114.03;5095303;28;20024;-68
2021/12/03 04:03:02;;;;;;;9.75;6.10;;;;;;;6.14;100.00;99120.75;5076393;28;20030;-67
2021/12/03 04:05:28;;;;;;;10.25;5.88;;;;;;;6.20;100.00;99133.50;5092155;28;20045;-68
2021/12/03 04:07:53;;;;;;;8.30;6.18;;;;;;;6.19;100.00;99129.16;5098736;28;20494;-68
2021/12/03 04:10:19;;;;;;;6.35;5.47;;;;;;;6.19;100.00;99137.13;5094456;28;20027;-67
2021/12/03 04:12:44;;;;;;;7.03;5.72;;;;;;;6.17;100.00;99132.94;5094725;28;20047;-67
2021/12/03 04:15:12;;;;;;;6.15;5.05;;;;;;;6.13;100.00;99124.34;5075031;28;20537;-68
2021/12/03 04:17:38;;;;;;;8.75;5.63;;;;;;;6.17;100.00;99133.78;5093369;28;20074;-67
2021/12/03 04:20:06;;;;;;;8.40;5.80;;;;;;;6.14;100.00;99138.53;5090406;28;20040;-67
2021/12/03 04:22:34;;;;;;;6.85;5.40;;;;;;;6.11;100.00;99134.31;5090711;28;20024;-67
2021/12/03 04:24:59;;;;;;;9.10;5.60;;;;;;;6.10;100.00;99139.78;5090548;28;20483;-67
2021/12/03 04:27:25;;;;;;;7.72;5.35;;;;;;;6.12;100.00;99159.09;5090412;28;20020;-67
2021/12/03 04:29:50;;;;;;;7.80;6.20;;;;;;;6.15;100.00;99167.66;5072367;28;20023;-66
2021/12/03 04:32:17;;;;;;;7.72;5.97;;;;;;;6.15;100.00;99161.50;5090421;28;20027;-66
2021/12/03 04:34:44;;;;;;;10.07;6.70;;;;;;;6.12;100.00;99172.41;5090287;28;20031;-66
2021/12/03 04:37:09;;;;;;;7.50;6.18;;;;;;;6.12;100.00;99181.25;5072122;28;20027;-66
2021/12/03 04:39:35;;;;;;;6.95;5.68;;;;;;;6.05;100.00;99166.78;5090099;28;20534;-66
2021/12/03 04:42:01;;;;;;;8.07;6.18;;;;;;;6.15;100.00;99193.44;5090108;28;20055;-66
2021/12/03 04:44:26;;;;;;;6.97;5.65;;;;;;;6.20;100.00;99193.88;5090156;28;20081;-66
2021/12/03 04:46:52;;;;;;;7.85;6.13;;;;;;;6.14;100.00;99192.59;5090194;28;20097;-66
2021/12/03 04:49:17;;;;;;;7.85;6.05;;;;;;;6.10;100.00;99199.16;5089612;28;20016;-66
2021/12/03 04:51:43;;;;;;;8.18;6.05;;;;;;;6.13;100.00;99206.88;5090134;28;20028;-66
2021/12/03 04:54:08;;;;;;;8.95;6.57;;;;;;;6.07;100.00;99209.25;5071610;28;20068;-66
2021/12/03 04:56:34;;;;;;;11.27;7.18;;;;;;;6.07;100.00;99206.56;5090056;28;20491;-66
2021/12/03 04:59:00;;;;;;;13.50;8.00;;;;;;;6.04;100.00;99205.03;5089956;28;20031;-66
2021/12/03 05:01:25;;;;;;;10.52;7.43;;;;;;;6.04;100.00;99213.03;5071851;28;20031;-66
2021/12/03 05:03:51;;;;;;;13.88;8.60;;;;;;;6.10;100.00;99224.94;5089652;28;20032;-66
2021/12/03 05:06:28;;;;;;;9.68;7.57;;;;;;;6.08;100.00;99241.03;5089889;28;20020;-66
2021/12/03 05:08:54;;;;;;;13.07;8.88;;;;;;;6.11;100.00;99262.06;5089796;28;20104;-66
2021/12/03 05:11:19;;;;;;;15.63;9.30;;;;;;;6.09;100.00;99258.69;5072201;28;20131;-66
2021/12/03 05:13:44;;;;;;;13.63;8.63;;;;;;;6.10;100.00;99264.88;5089571;28;20027;-65
2021/12/03 05:16:10;;;;;;;11.15;7.18;;;;;;;6.03;100.00;99269.84;5089677;28;20081;-65
2021/12/03 05:18:35;;;;;;;10.52;7.32;;;;;;;6.09;100.00;99279.13;5089503;28;20016;-66
2021/12/03 05:21:03;;;;;;;8.90;7.00;;;;;;;6.13;100.00;99291.22;5071753;28;20032;-65
2021/12/03 05:23:31;;;;;;;12.13;7.47;;;;;;;6.12;100.00;99300.16;5089811;28;20082;-66
2021/12/03 05:25:57;;;;;;;9.48;7.28;;;;;;;6.09;100.00;99311.91;5089680;28;20461;-66
2021/12/03 05:28:23;;;;;;;12.85;7.82;;;;;;;6.15;100.00;99323.84;5071540;28;20052;-66
2021/12/03 05:30:50;;;;;;;11.13;7.40;;;;;;;6.13;100.00;99326.66;5089586;28;20491;-66
2021/12/03 05:33:15;;;;;;;10.63;7.72;;;;;;;6.11;100.00;99325.94;5089195;28;20024;-66
2021/12/03 05:35:41;;;;;;;12.27;8.32;;;;;;;6.13;100.00;99339.94;5089274;28;20020;-66
2021/12/03 05:38:07;;;;;;;14.95;8.25;;;;;;;6.10;100.00;99334.88;5087298;28;20016;-65
2021/12/03 05:40:33;;;;;;;14.05;8.98;;;;;;;6.03;100.00;99336.38;5087729;28;20103;-65
2021/12/03 05:42:58;;;;;;;13.23;8.88;;;;;;;6.12;100.00;99353.38;5088174;28;20035;-66
2021/12/03 05:45:27;;;;;;;14.15;9.63;;;;;;;6.05;100.00;99358.41;5089215;28;20081;-66
2021/12/03 05:47:53;;;;;;;15.85;9.93;;;;;;;6.10;100.00;99358.84;5089488;28;20024;-66
2021/12/03 05:50:19;;;;;;;13.93;9.60;;;;;;;6.09;100.00;99377.59;5071265;28;20030;-66
2021/12/03 05:52:47;;;;;;;13.35;9.02;;;;;;;6.07;100.00;99379.56;5089090;28;20042;-66
2021/12/03 05:55:13;;;;;;;14.38;10.23;;;;;;;6.06;100.00;99381.38;5089591;28;20373;-65
2021/12/03 05:57:40;;;;;;;15.15;10.60;;;;;;;6.07;100.00;99388.41;5089909;28;20472;-66
2021/12/03 06:00:09;;;;;;;16.55;11.55;;;;;;;6.02;100.00;99390.59;5072921;28;20024;-66
2021/12/03 06:02:35;;;;;;;15.75;11.95;;;;;;;6.03;100.00;99402.09;5093746;28;20027;-66
2021/12/03 06:05:00;;;;;;;17.55;11.25;;;;;;;6.01;100.00;99404.88;5093813;28;20024;-65
2021/12/03 06:07:26;;;;;;;19.65;12.10;;;;;;;5.96;100.00;99411.53;5075524;28;20043;-65
2021/12/03 06:09:51;;;;;;;21.05;13.77;;;;;;;5.99;100.00;99411.28;5093711;28;20101;-66
2021/12/03 06:12:17;;;;;;;19.90;14.20;;;;;;;6.03;100.00;99415.41;5093572;28;20077;-65
2021/12/03 06:14:43;;;;;;;20.23;14.52;;;;;;;6.02;100.00;99411.88;5093342;28;20039;-66
2021/12/03 06:17:12;;;;;;;22.15;14.13;;;;;;;5.99;100.00;99411.28;5093624;28;20036;-66
2021/12/03 06:19:40;;;;;;;24.55;15.40;;;;;;;6.04;100.00;99438.38;5093401;28;20028;-66
2021/12/03 06:22:05;;;;;;;20.90;15.25;;;;;;;6.06;100.00;99426.63;5093665;28;20024;-66
2021/12/03 06:24:31;;;;;;;23.35;15.73;;;;;;;6.00;100.00;99416.47;5093470;28;20028;-65
2021/12/03 06:26:56;;;;;;;24.23;17.25;;;;;;;6.00;100.00;99432.44;5093584;28;20032;-66
2021/12/03 06:29:22;;;;;;;26.92;18.23;;;;;;;5.97;100.00;99424.72;5093121;28;20043;-65
2021/12/03 06:31:47;;;;;;;25.75;18.05;;;;;;;6.05;100.00;99446.22;5075112;28;20026;-66
2021/12/03 06:34:13;;;;;;;26.70;18.20;;;;;;;6.05;100.00;99446.22;5093295;28;20016;-66
2021/12/03 06:36:38;;;;;;;26.88;17.73;;;;;;;6.03;100.00;99453.50;5093483;28;20032;-66
2021/12/03 06:39:04;;;;;;;26.38;17.67;;;;;;;5.98;100.00;99452.19;5093281;28;20085;-65
2021/12/03 06:41:30;;;;;;;28.00;18.65;;;;;;;6.02;100.00;99458.94;5093203;28;20032;-66
2021/12/03 06:43:57;;;;;;;29.67;18.13;;;;;;;6.03;100.00;99466.78;5092821;28;20031;-65
2021/12/03 06:46:23;;;;;;;27.33;18.30;;;;;;;6.00;100.00;99471.53;5075083;28;20081;-65
2021/12/03 06:48:48;;;;;;;27.00;19.02;;;;;;;6.08;100.00;99483.25;5093014;28;20036;-66
2021/12/03 06:51:14;;;;;;;30.42;19.92;;;;;;;6.03;100.00;99477.44;5092919;28;20020;-66
2021/12/03 06:53:43;;;;;;;24.63;17.80;;;;;;;6.08;100.00;99501.88;5092910;28;20040;-66
2021/12/03 06:56:19;;;;;;;27.17;19.13;;;;;;;6.05;100.00;99496.81;5074523;28;20032;-65
2021/12/03 06:58:44;;;;;;;27.20;19.67;;;;;;;6.05;100.00;99502.13;5074348;28;20410;-67
2021/12/03 07:01:10;;;;;;;29.30;20.05;;;;;;;6.08;100.00;99515.19;5092080;28;20103;-66
2021/12/03 07:03:35;;;;;;;28.75;19.98;;;;;;;6.09;100.00;99524.00;5092146;28;20039;-66
2021/12/03 07:06:00;;;;;;;29.23;19.10;;;;;;;6.12;100.00;99519.28;5092072;28;20028;-67
2021/12/03 07:08:26;;;;;;;28.25;19.38;;;;;;;6.13;100.00;99536.09;5073998;28;20112;-66
2021/12/03 07:10:51;;;;;;;30.55;19.60;;;;;;;6.14;100.00;99541.31;5091320;28;20461;-66
2021/12/03 07:13:17;;;;;;;31.42;20.92;;;;;;;6.17;100.00;99545.53;5091929;28;20028;-66
2021/12/03 07:15:42;;;;;;;33.67;21.58;;;;;;;6.13;100.00;99544.91;5073619;28;20020;-66
2021/12/03 07:18:08;;;;;;;29.00;20.95;;;;;;;6.24;100.00;99568.84;5091721;28;20031;-66
2021/12/03 07:20:33;;;;;;;34.65;21.88;;;;;;;6.27;100.00;99573.06;5091835;28;20047;-66
2021/12/03 07:22:58;;;;;;;33.90;20.75;;;;;;;6.21;100.00;99574.44;5091657;28;20032;-66
2021/12/03 07:25:24;;;;;;;37.15;22.75;;;;;;;6.27;100.00;99579.25;5073311;28;20023;-66
2021/12/03 07:27:50;;;;;;;35.58;22.35;;;;;;;6.34;100.00;99588.44;5073227;28;20048;-66
2021/12/03 07:30:18;;;;;;;36.25;22.90;;;;;;;6.25;100.00;99583.00;5091537;28;20024;-66
2021/12/03 07:32:44;;;;;;;37.97;21.88;;;;;;;6.29;100.00;99590.59;5091517;28;20496;-66
2021/12/03 07:35:10;;;;;;;33.15;21.85;;;;;;;6.28;100.00;99591.59;5091493;28;20392;-66
2021/12/03 07:37:36;;;;;;;33.15;20.20;;;;;;;6.36;100.00;99594.47;5073283;28;20027;-66
2021/12/03 07:40:06;;;;;;;29.95;20.67;;;;;;;6.34;100.00;99614.19;5090985;28;20532;-66
2021/12/03 07:42:35;;;;;;;30.13;20.92;;;;;;;6.35;100.00;99618.53;5091430;28;20460;-66
2021/12/03 07:45:05;;;;;;;27.58;19.38;;;;;;;6.37;100.00;99629.94;5073052;28;20035;-66
2021/12/03 07:47:30;;;;;;;25.15;18.25;;;;;;;6.36;100.00;99622.91;5089215;28;20381;-66
2021/12/03 07:49:56;;;;;;;30.33;19.67;;;;;;;6.43;100.00;99638.28;5091205;28;20028;-66
2021/12/03 07:52:21;;;;;;;27.55;19.20;;;;;;;6.39;100.00;99631.50;5090886;28;20036;-66
2021/12/03 07:54:48;;;;;;;27.88;19.75;;;;;;;6.45;100.00;99643.47;5090960;28;20119;-66
2021/12/03 07:57:13;;;;;;;25.92;18.00;;;;;;;6.44;100.00;99637.31;5091067;28;20064;-65
2021/12/03 07:59:39;;;;;;;28.27;18.88;;;;;;;6.52;100.00;99653.47;5060376;28;20137;-66
2021/12/03 08:02:05;;;;;;;29.63;19.73;;;;;;;6.53;100.00;99657.00;5089243;28;20024;-66
2021/12/03 08:04:30;;;;;;;31.55;18.80;;;;;;;6.51;100.00;99657.13;5086014;28;20024;-65
2021/12/03 08:06:56;;;;;;;28.33;19.58;;;;;;;6.53;100.00;99668.53;5089843;28;20026;-65
2021/12/03 08:09:23;;;;;;;34.63;20.05;;;;;;;6.56;99.92;99678.94;5089877;28;20120;-65
2021/12/03 08:11:49;;;;;;;32.90;20.30;;;;;;;6.57;99.16;99677.94;5088344;28;20036;-65
2021/12/03 08:14:15;;;;;;;27.50;17.92;;;;;;;6.59;97.25;99685.81;5072358;28;20111;-65
2021/12/03 08:16:42;;;;;;;28.05;18.45;;;;;;;6.62;96.70;99691.72;5090776;28;20098;-65
2021/12/03 08:19:07;;;;;;;26.30;16.80;;;;;;;6.61;96.93;99687.38;5090910;28;20032;-66
2021/12/03 08:21:33;;;;;;;25.58;16.83;;;;;;;6.59;95.69;99684.00;5091288;28;20055;-65
2021/12/03 08:24:00;;;;;;;27.27;15.32;;;;;;;6.60;93.54;99683.03;5072043;28;20373;-66
2021/12/03 08:26:27;;;;;;;25.75;15.38;;;;;;;6.68;91.54;99695.72;5091398;28;20023;-65
2021/12/03 08:28:53;;;;;;;21.48;14.48;;;;;;;6.70;90.49;99707.09;5090762;28;20052;-65
2021/12/03 08:31:19;;;;;;;22.63;14.73;;;;;;;6.70;90.86;99707.94;5091440;28;20040;-66
2021/12/03 08:33:45;;;;;;;23.98;14.85;;;;;;;6.70;90.38;99715.06;5072822;28;20024;-66
2021/12/03 08:36:11;;;;;;;26.55;16.00;;;;;;;6.76;88.38;99715.44;5090861;28;20092;-66
2021/12/03 08:38:36;;;;;;;26.67;15.02;;;;;;;6.78;88.28;99716.16;5090965;28;20032;-66
2021/12/03 08:41:03;;;;;;;26.27;15.98;;;;;;;6.89;87.99;99734.78;5090671;28;20040;-67
2021/12/03 08:43:28;;;;;;;25.02;16.80;;;;;;;6.89;87.94;99734.78;5090976;28;20036;-65
2021/12/03 08:45:55;;;;;;;24.65;15.25;;;;;;;6.92;89.08;99750.53;5090908;28;20503;-65
2021/12/03 08:48:23;;;;;;;27.15;16.88;;;;;;;6.90;88.07;99760.47;5090881;28;20027;-66
2021/12/03 08:51:08;;;;;;;23.45;14.82;;;;;;;6.94;88.42;99766.41;5072394;28;20111;-66
2021/12/03 08:56:18;;;;;;;24.45;16.30;;;;;;;7.00;89.38;99768.56;5090607;28;20039;-66
2021/12/03 08:58:43;;;;;;;23.70;14.85;;;;;;;7.02;86.57;99765.78;5072578;28;20047;-66
2021/12/03 09:01:12;;;;;;;27.90;13.23;;;;;;;7.04;84.34;99773.50;5072346;28;20024;-66
2021/12/03 09:03:37;;;;;;;19.02;11.82;;;;;;;7.07;81.34;99805.22;5090602;28;20092;-66
2021/12/03 09:06:03;;;;;;;20.90;11.27;;;;;;;7.06;78.99;99809.88;5090492;28;20073;-66
2021/12/03 09:08:28;;;;;;;17.50;9.02;;;;;;;7.13;71.20;99816.38;5090727;28;20036;-66
2021/12/03 09:10:53;;;;;;;16.20;8.23;;;;;;;7.06;70.90;99815.19;5083235;28;20036;-66
2021/12/03 09:13:20;;;;;;;16.13;8.57;;;;;;;7.04;71.41;99804.66;5090429;28;20039;-66
2021/12/03 09:15:54;;;;;;;16.73;8.43;;;;;;;7.09;69.80;99821.09;5090369;28;20032;-66
2021/12/03 09:18:35;;;;;;;15.10;8.38;;;;;;;7.06;70.41;99825.88;5090562;28;20043;-66
2021/12/03 09:23:43;;;;;;;15.65;7.82;;;;;;;7.13;69.72;99835.06;5090241;28;20047;-66
2021/12/03 09:26:10;;;;;;;14.88;7.80;;;;;;;7.17;69.79;99841.81;5090498;28;20464;-66
2021/12/03 09:28:39;;;;;;;14.68;8.00;;;;;;;7.15;68.08;99841.94;5090296;28;20512;-65
2021/12/03 09:31:06;;;;;;;15.63;7.15;;;;;;;7.14;68.28;99834.94;5072178;28;20028;-66
2021/12/03 09:33:34;;;;;;;14.13;7.82;;;;;;;7.15;69.07;99847.28;5090617;28;20016;-66
2021/12/03 09:36:03;;;;;;;15.48;6.47;;;;;;;7.14;68.96;99842.06;5094479;28;20028;-66
2021/12/03 09:38:32;;;;;;;17.10;6.70;;;;;;;7.16;66.30;99851.63;5094748;28;20365;-66
2021/12/03 09:41:08;;;;;;;15.48;6.40;;;;;;;7.17;65.62;99849.81;5076138;28;20028;-66
2021/12/03 09:43:40;;;;;;;11.95;6.03;;;;;;;7.16;66.72;99859.63;5076204;28;20452;-66
2021/12/03 09:46:22;;;;;;;14.32;5.22;;;;;;;7.14;66.42;99850.94;5094243;28;20043;-66
2021/12/03 09:51:15;;;;;;;11.45;5.25;;;;;;;7.17;61.31;99850.69;5094153;28;20523;-66
2021/12/03 09:54:24;;;;;;;11.88;4.40;;;;;;;7.19;61.33;99861.22;5076019;28;20064;-66
2021/12/03 09:56:31;;;;;;;8.15;4.22;;;;;;;7.18;61.60;99860.38;5085785;28;20051;-65
2021/12/03 10:15:24;;;;;;;8.45;3.30;;;;;;;7.23;58.87;99874.19;5094001;28;20184;-67
2021/12/03 10:29:20;;;;;;;6.05;3.20;;;;;;;7.28;56.11;99895.16;5093125;28;20062;-66
2021/12/03 10:35:27;;;;;;;6.80;2.83;;;;;;;7.26;55.43;99907.75;5093825;28;20046;-66
2021/12/03 10:38:13;;;;;;;5.10;2.78;;;;;;;7.24;56.37;99920.34;5091470;28;20030;-65
2021/12/03 14:11:29;;;;;;;7.45;4.10;;;;;;;6.92;44.63;100097.06;5083559;28;20071;-66
2021/12/03 14:56:47;;;;;;;8.18;3.88;;;;;;;5.80;53.55;100169.41;5093515;28;20036;-70
2021/12/03 14:59:29;;;;;;;11.80;4.22;;;;;;;5.73;53.69;100176.94;5093473;28;20545;-68
2021/12/03 15:02:09;;;;;;;10.75;5.30;;;;;;;5.65;53.60;100165.16;5091741;28;20028;-69
2021/12/03 15:07:42;;;;;;;12.55;5.05;;;;;;;5.48;54.78;100198.22;5020020;28;20028;-70
2021/12/03 15:10:14;;;;;;;12.98;4.53;;;;;;;5.37;55.02;100199.94;5066644;28;20036;-69
2021/12/03 15:13:07;;;;;;;13.77;4.95;;;;;;;5.34;55.07;100219.59;5093332;28;20476;-69
2021/12/03 15:21:19;;;;;;;15.75;6.50;;;;;;;5.10;56.03;100205.31;5093245;28;20075;-68
2021/12/03 15:26:58;;;;;;;17.60;6.85;;;;;;;4.87;56.79;100221.94;5091482;28;20129;-69
2021/12/03 15:32:12;;;;;;;20.65;8.65;;;;;;;4.69;57.52;100217.84;5092819;28;20484;-70
2021/12/03 15:35:21;;;;;;;21.83;8.35;;;;;;;4.64;57.33;100231.41;5092103;28;20066;-69
2021/12/03 15:38:18;;;;;;;21.23;8.65;;;;;;;4.55;57.93;100231.16;5082001;28;20080;-70
2021/12/03 16:05:00;;;;;;;;;;;;;;;3.95;60.51;100273.03;5092760;28;20050;-68
2021/12/03 16:07:54;;;;;;;20.50;7.20;;;;;;;3.85;61.04;100286.97;5091978;28;19912;-68
2021/12/03 16:10:30;;;;;;;18.35;6.07;;;;;;;3.79;61.48;100292.63;5091943;28;20132;-69
2021/12/03 16:52:11;;;;;;;20.85;9.50;;;;;;;2.97;66.64;100339.03;5090923;28;20028;-68
2021/12/03 16:54:55;;;;;;;20.67;9.90;;;;;;;2.96;66.46;100332.03;5072677;28;20031;-69
2021/12/03 16:57:28;;;;;;;22.95;11.27;;;;;;;2.93;66.93;100334.84;5091395;28;20027;-69
2021/12/03 16:59:53;;;;;;;24.70;11.27;;;;;;;2.86;67.44;100340.56;5072893;28;20150;-69
2021/12/03 17:02:25;;;;;;;22.50;10.73;;;;;;;2.79;67.66;100331.25;5091164;28;20111;-68
2021/12/03 17:10:58;;;;;;;24.13;11.00;;;;;;;2.65;69.32;100333.84;5090953;28;20074;-69
2021/12/03 17:47:36;;;;;;;18.00;7.25;;;;;;;1.92;75.83;100379.25;5089289;28;20118;-69
2021/12/03 18:00:23;;;;;;;19.60;10.02;;;;;;;1.64;76.76;100363.06;5093453;28;20024;-68
2021/12/03 18:02:52;;;;;;;28.90;10.48;;;;;;;1.60;77.40;100359.75;5071929;28;20472;-70
2021/12/03 18:58:00;;;;;;;27.40;13.18;;;;;;;0.97;80.68;100420.16;5089696;28;20040;-68
2021/12/03 19:00:29;;;;;;;30.02;14.60;;;;;;;0.96;80.47;100411.38;5072555;28;20049;-68
2021/12/03 19:02:56;;;;;;;32.03;14.48;;;;;;;0.93;79.76;100416.81;5071399;28;20036;-67
2021/12/03 19:08:05;;;;;;;27.20;14.00;;;;;;;0.81;78.73;100412.09;5088819;28;20085;-70
2021/12/03 19:10:34;;;;;;;33.45;16.10;;;;;;;0.80;79.02;100414.81;5071870;28;20106;-69
2021/12/03 19:13:05;;;;;;;34.22;14.80;;;;;;;0.75;79.55;100419.44;5070157;28;20036;-69
2021/12/03 19:15:32;;;;;;;39.45;17.90;;;;;;;0.73;79.99;100422.16;5072272;28;20365;-68
2021/12/03 19:18:01;;;;;;;39.50;17.63;;;;;;;0.67;79.69;100426.88;5070746;28;20035;-68
2021/12/03 19:20:29;;;;;;;40.67;18.38;;;;;;;0.62;79.66;100416.53;5090179;28;20104;-69
2021/12/03 19:22:54;;;;;;;34.90;17.90;;;;;;;0.58;79.92;100414.94;5088969;28;20044;-69
2021/12/03 19:25:20;;;;;;;34.45;18.30;;;;;;;0.59;80.50;100418.44;5089547;28;20438;-69